TAF Text Data
IDs:
Format:
Raw Decoded Include METAR

Data at: 1324 UTC 20 Jul 2019

LFRN 201300Z AUTO 26011KT 240V300 9999 BKN035 OVC047 25/16 Q1013 TEMPO SHRA BKN020TCU

TAF LFRN 201100Z 2012/2112 23010KT 9999 BKN030
  PROB30
  TEMPO 2012/2016 5000 SHRA BKN020TCU
  TEMPO 2018/2020 36010KT
  BECMG 2020/2022 VRB03KT
  TEMPO 2100/2108 BKN015
  PROB30
  TEMPO 2100/2106 3000 BR BKN008


LFRS 201300Z AUTO 25013G25KT 210V290 9999 BKN029 BKN049 BKN060 25/17 Q1015 NOSIG

TAF LFRS 201100Z 2012/2118 23010KT 9999 BKN025
  BECMG 2100/2103 28005KT
  TEMPO 2103/2106 3000 BR BKN004
  PROB30
  TEMPO 2103/2106 0800 BCFG


LFRV 201300Z AUTO 26010KT 210V310 9999 FEW014 SCT026 23/15 Q1014


LFRB 201300Z AUTO 24012KT 9999 SCT018 OVC044 20/15 Q1014 TEMPO SHRA BKN010

TAF LFRB 201100Z 2012/2118 25010KT 9999 BKN020
  PROB30
  TEMPO 2012/2018 SHRA BKN010
  BECMG 2100/2103 VRB03KT 2000 BR BKN005
  BECMG 2108/2110 24008KT 9999 NSW SCT020


LFRQ 201300Z AUTO 25012KT 9999 BKN020 BKN028 OVC037 20/16 Q1015 NOSIG

TAF LFRQ 201100Z 2012/2112 28012KT 9999 BKN020
  BECMG 2100/2103 VRB03KT 2000 BR BKN005
  BECMG 2108/2110 9999 NSW SCT020


LFRZ 201300Z AUTO 24015KT 9999 SCT019 SCT035 BKN043 22/16 Q1015 NOSIG

TAF LFRZ 201100Z 2012/2112 22010KT 9999 BKN020
  BECMG 2100/2103 VRB04KT
  TEMPO 2103/2106 3000 BR BKN003
  PROB30
  TEMPO 2103/2106 0800 BCFG


LFRH 201300Z AUTO 26015KT CAVOK 22/16 Q1015 TEMPO 26012G22KT

TAF LFRH 201100Z 2012/2112 26012KT CAVOK
  TEMPO 2012/2018 26012G22KT
  BECMG 2019/2021 26010KT BKN025
  BECMG 2022/2024 VRB03KT BKN015
  TEMPO 2100/2106 BKN003 BKN008 OVC015
  BECMG 2110/2112 23010KT BKN030


LFOV 201300Z AUTO 23012KT 190V260 9999 FEW024 SCT210 23/17 Q1014